createdAt,value
2019-04-25T00:00:14.996Z,0.00
2019-04-25T00:01:14.823Z,0.00
2019-04-25T00:02:14.804Z,0.00
2019-04-25T00:03:14.649Z,0.00
2019-04-25T00:04:14.564Z,0.00
2019-04-25T00:05:14.527Z,0.00
2019-04-25T00:06:14.414Z,0.00
2019-04-25T00:07:14.309Z,0.00
2019-04-25T00:08:14.336Z,0.00
2019-04-25T00:09:14.148Z,0.00
2019-04-25T00:10:14.062Z,0.00
2019-04-25T00:11:16.020Z,0.00
2019-04-25T00:12:13.894Z,0.00
2019-04-25T00:13:13.809Z,0.00
2019-04-25T00:14:13.759Z,0.00
2019-04-25T00:15:13.645Z,0.00
2019-04-25T00:16:13.572Z,0.00
2019-04-25T00:17:13.574Z,0.00
2019-04-25T00:18:13.391Z,0.00
2019-04-25T00:19:13.304Z,0.00
2019-04-25T00:20:13.287Z,0.00
2019-04-25T00:21:13.153Z,0.00
2019-04-25T00:22:13.058Z,0.00
2019-04-25T00:23:13.003Z,0.00
2019-04-25T00:24:12.892Z,0.00
2019-04-25T00:25:15.876Z,0.00
2019-04-25T00:26:12.846Z,0.00
2019-04-25T00:27:12.645Z,0.00
2019-04-25T00:28:12.561Z,0.00
2019-04-25T00:29:13.193Z,0.00
2019-04-25T00:30:12.393Z,0.00
2019-04-25T00:31:12.371Z,0.00
2019-04-25T00:32:12.224Z,0.00
2019-04-25T00:33:12.255Z,0.00
2019-04-25T00:34:12.153Z,0.00
2019-04-25T00:35:14.005Z,0.00
2019-04-25T00:36:12.094Z,0.00
2019-04-25T00:37:13.747Z,0.00
2019-04-25T00:38:12.211Z,0.00
2019-04-25T00:39:11.930Z,0.00
2019-04-25T00:40:11.902Z,0.00
2019-04-25T00:41:11.641Z,0.00
2019-04-25T00:42:12.220Z,0.00
2019-04-25T00:43:11.473Z,0.00
2019-04-25T00:44:12.091Z,0.00
2019-04-25T00:45:11.913Z,0.00
2019-04-25T00:46:14.523Z,0.00
2019-04-25T00:47:11.775Z,0.00
2019-04-25T00:48:12.237Z,0.00
2019-04-25T00:49:12.249Z,0.00
2019-04-25T00:50:11.991Z,0.00
2019-04-25T00:51:11.797Z,0.00
2019-04-25T00:52:11.630Z,0.00
2019-04-25T00:53:12.490Z,0.00
2019-04-25T00:54:11.871Z,0.00
2019-04-25T00:55:11.614Z,0.00
2019-04-25T00:56:11.259Z,0.00
2019-04-25T00:57:10.161Z,0.00
2019-04-25T00:58:11.484Z,0.00
2019-04-25T00:59:11.859Z,0.00
2019-04-25T01:00:11.554Z,0.00
2019-04-25T01:01:09.919Z,0.00
2019-04-25T01:02:11.374Z,0.00
2019-04-25T01:03:09.692Z,0.00
2019-04-25T01:04:09.555Z,0.00
2019-04-25T01:05:09.471Z,0.00
2019-04-25T01:06:09.401Z,0.00
2019-04-25T01:07:09.414Z,0.00
2019-04-25T01:08:09.221Z,0.00
2019-04-25T01:09:09.137Z,0.00
2019-04-25T01:10:09.054Z,0.00
2019-04-25T01:11:09.072Z,0.00
2019-04-25T01:12:08.891Z,0.00
2019-04-25T01:13:08.840Z,0.00
2019-04-25T01:14:08.721Z,0.00
2019-04-25T01:15:08.753Z,0.00
2019-04-25T01:16:08.565Z,0.00
2019-04-25T01:17:08.560Z,0.00
2019-04-25T01:18:08.393Z,0.00
2019-04-25T01:19:08.303Z,0.00
2019-04-25T01:20:08.276Z,0.00
2019-04-25T01:21:08.147Z,0.00
2019-04-25T01:22:08.052Z,0.00
2019-04-25T01:23:07.988Z,0.00
2019-04-25T01:24:07.881Z,0.00
2019-04-25T01:25:07.798Z,0.00
2019-04-25T01:26:07.837Z,0.00
2019-04-25T01:27:07.646Z,0.00
2019-04-25T01:28:07.550Z,0.00
2019-04-25T01:29:08.555Z,0.00
2019-04-25T01:30:07.382Z,0.00
2019-04-25T01:31:07.329Z,0.00
2019-04-25T01:32:07.275Z,0.00
2019-04-25T01:33:07.388Z,0.00
2019-04-25T01:34:07.364Z,0.00
2019-04-25T01:35:07.134Z,0.00
2019-04-25T01:36:06.882Z,0.00
2019-04-25T01:37:06.889Z,0.00
2019-04-25T01:38:06.715Z,0.00
2019-04-25T01:39:06.664Z,0.00
2019-04-25T01:40:06.547Z,0.00
2019-04-25T01:41:07.624Z,0.00
2019-04-25T01:42:06.398Z,0.00
2019-04-25T01:43:06.296Z,0.00
2019-04-25T01:44:06.286Z,0.00
2019-04-25T01:45:06.125Z,0.00
2019-04-25T01:46:06.044Z,0.00
2019-04-25T01:47:06.036Z,0.00
2019-04-25T01:48:05.885Z,0.00
2019-04-25T01:49:05.791Z,0.00
2019-04-25T01:50:05.820Z,0.00
2019-04-25T01:51:05.627Z,0.00
2019-04-25T01:52:05.562Z,0.00
2019-04-25T01:53:05.532Z,0.00
2019-04-25T01:54:05.376Z,0.00
2019-04-25T01:55:05.557Z,0.00
2019-04-25T01:56:07.779Z,0.00
2019-04-25T01:57:05.184Z,0.00
2019-04-25T01:58:05.040Z,0.00
2019-04-25T01:59:04.956Z,0.00
2019-04-25T02:00:04.969Z,0.00
2019-04-25T02:01:04.796Z,0.00
2019-04-25T02:02:06.726Z,0.00
2019-04-25T02:03:04.684Z,0.00
2019-04-25T02:04:04.539Z,0.00
2019-04-25T02:05:05.134Z,0.00
2019-04-25T02:06:05.076Z,0.00
2019-04-25T02:07:04.455Z,0.00
2019-04-25T02:08:06.951Z,0.00
2019-04-25T02:09:05.211Z,0.00
2019-04-25T02:10:04.047Z,0.00
2019-04-25T02:11:04.741Z,0.00
2019-04-25T02:12:04.875Z,0.00
2019-04-25T02:13:03.908Z,0.00
2019-04-25T02:14:05.081Z,0.00
2019-04-25T02:15:05.887Z,0.00
2019-04-25T02:16:05.231Z,0.00
2019-04-25T02:17:04.524Z,0.00
2019-04-25T02:18:03.811Z,0.00
2019-04-25T02:19:03.994Z,0.00
2019-04-25T02:20:04.205Z,0.00
2019-04-25T02:21:04.486Z,0.00
2019-04-25T02:22:04.032Z,0.00
2019-04-25T02:23:04.181Z,0.00
2019-04-25T02:24:04.379Z,0.00
2019-04-25T02:25:04.444Z,0.00
2019-04-25T02:26:12.112Z,0.00
2019-04-25T02:27:04.579Z,0.00
2019-04-25T02:28:05.539Z,0.00
2019-04-25T02:29:04.465Z,0.00
2019-04-25T02:30:04.371Z,0.00
2019-04-25T02:31:05.603Z,0.00
2019-04-25T02:32:05.116Z,0.00
2019-04-25T02:33:06.778Z,0.00
2019-04-25T02:34:03.659Z,0.00
2019-04-25T02:35:07.895Z,0.00
2019-04-25T02:36:04.049Z,0.00
2019-04-25T02:37:05.602Z,0.00
2019-04-25T02:38:04.579Z,0.00
2019-04-25T02:39:04.614Z,0.00
2019-04-25T02:40:03.896Z,0.00
2019-04-25T02:41:03.221Z,0.00
2019-04-25T02:42:04.033Z,0.00
2019-04-25T02:43:03.164Z,0.00
2019-04-25T02:44:06.008Z,0.00
2019-04-25T02:45:02.401Z,0.00
2019-04-25T02:46:02.218Z,0.00
2019-04-25T02:47:02.217Z,0.00
2019-04-25T02:48:01.436Z,0.00
2019-04-25T02:49:02.855Z,0.00
2019-04-25T02:50:02.238Z,0.00
2019-04-25T02:51:01.249Z,0.00
2019-04-25T02:52:01.227Z,0.00
2019-04-25T02:53:01.331Z,0.00
2019-04-25T02:54:01.798Z,0.00
2019-04-25T02:55:00.758Z,0.00
2019-04-25T02:56:00.189Z,0.00
2019-04-25T02:57:00.142Z,0.00
2019-04-25T02:58:00.427Z,0.00
2019-04-25T02:59:00.317Z,0.00
2019-04-25T03:00:00.247Z,0.00
2019-04-25T03:01:12.403Z,0.00
2019-04-25T03:02:00.757Z,0.00
2019-04-25T03:03:00.899Z,0.00
2019-04-25T03:04:00.839Z,0.00
2019-04-25T03:05:00.099Z,0.00
2019-04-25T03:05:59.763Z,0.00
2019-04-25T03:07:00.680Z,0.00
2019-04-25T03:07:59.997Z,0.00
2019-04-25T03:09:00.298Z,0.00
2019-04-25T03:09:59.569Z,0.00
2019-04-25T03:10:59.790Z,0.00
2019-04-25T03:11:59.804Z,0.00
2019-04-25T03:13:00.035Z,0.00
2019-04-25T03:14:00.375Z,0.00
2019-04-25T03:15:00.030Z,0.00
2019-04-25T03:15:59.055Z,0.00
2019-04-25T03:16:59.179Z,0.00
2019-04-25T03:17:58.710Z,0.00
2019-04-25T03:18:59.441Z,0.00
2019-04-25T03:19:59.418Z,0.00
2019-04-25T03:20:59.196Z,0.00
2019-04-25T03:21:59.504Z,0.00
2019-04-25T03:22:59.370Z,0.00
2019-04-25T03:23:58.614Z,0.00
2019-04-25T03:24:59.662Z,0.00
2019-04-25T03:25:59.122Z,0.00
2019-04-25T03:26:58.574Z,0.00
2019-04-25T03:27:57.515Z,0.00
2019-04-25T03:28:57.497Z,0.00
2019-04-25T03:29:57.359Z,0.00
2019-04-25T03:30:57.368Z,0.00
2019-04-25T03:31:57.195Z,0.00
2019-04-25T03:32:57.113Z,0.00
2019-04-25T03:33:57.016Z,0.00
2019-04-25T03:34:56.944Z,0.00
2019-04-25T03:35:56.927Z,0.00
2019-04-25T03:36:56.757Z,0.00
2019-04-25T03:37:56.681Z,0.00
2019-04-25T03:38:56.641Z,0.00
2019-04-25T03:39:56.524Z,0.00
2019-04-25T03:40:56.427Z,0.00
2019-04-25T03:41:56.455Z,4.00
2019-04-25T03:42:56.262Z,4.00
2019-04-25T03:43:56.176Z,4.00
2019-04-25T03:44:56.203Z,4.00
2019-04-25T03:45:56.007Z,4.00
2019-04-25T03:46:55.987Z,8.00
2019-04-25T03:47:55.841Z,4.00
2019-04-25T03:48:55.789Z,8.00
2019-04-25T03:49:55.687Z,8.00
2019-04-25T03:50:55.700Z,12.00
2019-04-25T03:51:55.507Z,12.00
2019-04-25T03:52:55.510Z,16.00
2019-04-25T03:53:55.336Z,20.00
2019-04-25T03:54:56.848Z,20.00
2019-04-25T03:55:55.173Z,24.00
2019-04-25T03:56:56.206Z,28.00
2019-04-25T03:57:55.010Z,32.00
2019-04-25T03:58:54.934Z,40.00
2019-04-25T03:59:54.852Z,44.00
2019-04-25T04:00:54.847Z,52.00
2019-04-25T04:01:54.670Z,64.00
2019-04-25T04:02:55.378Z,68.00
2019-04-25T04:03:54.505Z,84.00
2019-04-25T04:04:54.448Z,96.00
2019-04-25T04:05:55.574Z,108.00
2019-04-25T04:06:54.252Z,124.00
2019-04-25T04:07:54.171Z,144.00
2019-04-25T04:08:54.183Z,164.00
2019-04-25T04:09:55.087Z,184.00
2019-04-25T04:10:54.426Z,208.00
2019-04-25T04:11:53.899Z,236.00
2019-04-25T04:12:54.246Z,264.00
2019-04-25T04:13:55.458Z,292.00
2019-04-25T04:14:53.860Z,324.00
2019-04-25T04:15:53.517Z,356.00
2019-04-25T04:16:53.906Z,392.00
2019-04-25T04:17:53.695Z,428.00
2019-04-25T04:18:54.103Z,468.00
2019-04-25T04:19:53.728Z,512.00
2019-04-25T04:20:56.565Z,556.00
2019-04-25T04:21:53.261Z,604.00
2019-04-25T04:22:53.292Z,656.00
2019-04-25T04:23:54.211Z,704.00
2019-04-25T04:24:53.817Z,760.00
2019-04-25T04:25:53.280Z,820.00
2019-04-25T04:27:03.077Z,884.00
2019-04-25T04:27:53.780Z,944.00
2019-04-25T04:28:53.314Z,1012.00
2019-04-25T04:29:52.337Z,1084.00
2019-04-25T04:30:53.947Z,1152.00
2019-04-25T04:31:52.888Z,1224.00
2019-04-25T04:32:53.578Z,1284.00
2019-04-25T04:33:53.129Z,1352.00
2019-04-25T04:34:53.683Z,1424.00
2019-04-25T04:35:51.842Z,1500.00
2019-04-25T04:36:51.746Z,1576.00
2019-04-25T04:37:51.728Z,1648.00
2019-04-25T04:38:51.604Z,1732.00
2019-04-25T04:39:51.506Z,1828.00
2019-04-25T04:40:51.467Z,1948.00
2019-04-25T04:41:51.327Z,2088.00
2019-04-25T04:42:51.252Z,2252.00
2019-04-25T04:43:51.254Z,2412.00
2019-04-25T04:44:51.082Z,2564.00
2019-04-25T04:45:51.009Z,2728.00
2019-04-25T04:46:50.967Z,2884.00
2019-04-25T04:47:50.843Z,3048.00
2019-04-25T04:48:50.745Z,3212.00
2019-04-25T04:49:50.681Z,3364.00
2019-04-25T04:50:50.600Z,3512.00
2019-04-25T04:51:50.495Z,3664.00
2019-04-25T04:52:50.495Z,3820.00
2019-04-25T04:53:50.355Z,3988.00
2019-04-25T04:55:02.907Z,4172.00
2019-04-25T04:55:50.240Z,4380.00
2019-04-25T04:56:50.074Z,4592.00
2019-04-25T04:57:50.021Z,4808.00
2019-04-25T04:58:49.908Z,5024.00
2019-04-25T04:59:49.829Z,5236.00
2019-04-25T05:00:49.870Z,5444.00
2019-04-25T05:01:49.662Z,5636.00
2019-04-25T05:02:49.575Z,5804.00
2019-04-25T05:03:49.625Z,5952.00
2019-04-25T05:04:49.422Z,6072.00
2019-04-25T05:05:49.338Z,6180.00
2019-04-25T05:06:49.441Z,6260.00
2019-04-25T05:07:49.161Z,6324.00
2019-04-25T05:08:49.080Z,6360.00
2019-04-25T05:09:49.054Z,6352.00
2019-04-25T05:10:48.936Z,6300.00
2019-04-25T05:11:48.885Z,6204.00
2019-04-25T05:12:48.750Z,6020.00
2019-04-25T05:13:48.674Z,5784.00
2019-04-25T05:14:48.577Z,5500.00
2019-04-25T05:15:48.547Z,5208.00
2019-04-25T05:16:49.592Z,5012.00
2019-04-25T05:17:48.492Z,4780.00
2019-04-25T05:18:48.255Z,4660.00
2019-04-25T05:19:48.189Z,4596.00
2019-04-25T05:20:48.137Z,4632.00
2019-04-25T05:21:47.998Z,4752.00
2019-04-25T05:22:47.917Z,4960.00
2019-04-25T05:23:47.930Z,5220.00
2019-04-25T05:24:48.714Z,5488.00
2019-04-25T05:25:47.668Z,5760.00
2019-04-25T05:26:47.778Z,6044.00
2019-04-25T05:27:59.657Z,6388.00
2019-04-25T05:28:47.421Z,6932.00
2019-04-25T05:29:47.576Z,7756.00
2019-04-25T05:30:49.083Z,9000.00
2019-04-25T05:31:47.220Z,9192.00
2019-04-25T05:32:47.281Z,10156.00
2019-04-25T05:33:47.013Z,14216.00
2019-04-25T05:34:49.262Z,15968.00
2019-04-25T05:35:47.007Z,16000.00
2019-04-25T05:36:46.772Z,16000.00
2019-04-25T05:37:46.824Z,15872.00
2019-04-25T05:38:46.597Z,15680.00
2019-04-25T05:39:46.523Z,13860.00
2019-04-25T05:40:46.595Z,12188.00
2019-04-25T05:41:47.974Z,12316.00
2019-04-25T05:42:46.259Z,12576.00
2019-04-25T05:43:46.246Z,11036.00
2019-04-25T05:44:46.107Z,10816.00
2019-04-25T05:45:46.018Z,10856.00
2019-04-25T05:46:46.094Z,11100.00
2019-04-25T05:47:45.857Z,11524.00
2019-04-25T05:48:45.777Z,12448.00
2019-04-25T05:49:45.779Z,12044.00
2019-04-25T05:50:45.615Z,12132.00
2019-04-25T05:51:45.663Z,12108.00
2019-04-25T05:52:45.961Z,12428.00
2019-04-25T05:53:47.134Z,12736.00
2019-04-25T05:54:45.282Z,13408.00
2019-04-25T05:55:45.260Z,13928.00
2019-04-25T05:56:45.135Z,14516.00
2019-04-25T05:57:49.905Z,15216.00
2019-04-25T05:58:45.076Z,19648.00
2019-04-25T05:59:44.876Z,20800.00
2019-04-25T06:00:44.801Z,23616.00
2019-04-25T06:01:44.921Z,25728.00
2019-04-25T06:02:46.200Z,23232.00
2019-04-25T06:03:44.552Z,23104.00
2019-04-25T06:04:44.509Z,24960.00
2019-04-25T06:05:44.388Z,24896.00
2019-04-25T06:06:44.670Z,23680.00
2019-04-25T06:07:44.316Z,24640.00
2019-04-25T06:08:44.226Z,23488.00
2019-04-25T06:09:44.353Z,21248.00
2019-04-25T06:10:45.233Z,24128.00
2019-04-25T06:11:43.920Z,21824.00
2019-04-25T06:12:43.824Z,24416.00
2019-04-25T06:13:43.789Z,29024.00
2019-04-25T06:14:43.662Z,27456.00
2019-04-25T06:15:43.583Z,24800.00
2019-04-25T06:16:43.721Z,21472.00
2019-04-25T06:17:43.544Z,21728.00
2019-04-25T06:18:43.979Z,23008.00
2019-04-25T06:19:43.597Z,18912.00
2019-04-25T06:20:44.293Z,19520.00
2019-04-25T06:21:43.499Z,19616.00
2019-04-25T06:22:43.556Z,20800.00
2019-04-25T06:23:44.351Z,19872.00
2019-04-25T06:24:44.312Z,18048.00
2019-04-25T06:25:43.913Z,17856.00
2019-04-25T06:26:43.327Z,18176.00
2019-04-25T06:27:43.620Z,17920.00
2019-04-25T06:28:51.255Z,18144.00
2019-04-25T06:29:43.196Z,18784.00
2019-04-25T06:30:44.212Z,20416.00
2019-04-25T06:31:43.917Z,19360.00
2019-04-25T06:32:43.703Z,18496.00
2019-04-25T06:33:43.409Z,17280.00
2019-04-25T06:34:42.059Z,17152.00
2019-04-25T06:35:41.995Z,16172.00
2019-04-25T06:36:42.081Z,15920.00
2019-04-25T06:37:41.827Z,15688.00
2019-04-25T06:38:41.741Z,15332.00
2019-04-25T06:39:41.862Z,15536.00
2019-04-25T06:40:41.580Z,15912.00
2019-04-25T06:41:41.512Z,16832.00
2019-04-25T06:42:41.476Z,16640.00
2019-04-25T06:43:41.339Z,16576.00
2019-04-25T06:44:41.296Z,17824.00
2019-04-25T06:45:41.290Z,18208.00
2019-04-25T06:46:41.110Z,17536.00
2019-04-25T06:47:41.023Z,17568.00
2019-04-25T06:48:40.953Z,18240.00
2019-04-25T06:49:40.910Z,18848.00
2019-04-25T06:50:40.775Z,19360.00
2019-04-25T06:51:40.717Z,20032.00
2019-04-25T06:52:40.724Z,20608.00
2019-04-25T06:53:40.552Z,21056.00
2019-04-25T06:54:40.534Z,21536.00
2019-04-25T06:55:40.377Z,22336.00
2019-04-25T06:56:40.313Z,23136.00
2019-04-25T06:57:40.346Z,23264.00
2019-04-25T06:58:40.154Z,23808.00
2019-04-25T06:59:41.572Z,24672.00
2019-04-25T07:00:42.579Z,25248.00
2019-04-25T07:01:39.908Z,29472.00
2019-04-25T07:02:39.811Z,30208.00
2019-04-25T07:03:39.772Z,28608.00
2019-04-25T07:04:39.650Z,31712.00
2019-04-25T07:05:40.680Z,32576.00
2019-04-25T07:06:39.617Z,34784.00
2019-04-25T07:07:39.414Z,28864.00
2019-04-25T07:08:39.326Z,37280.00
2019-04-25T07:09:39.449Z,34912.00
2019-04-25T07:10:39.170Z,27456.00
2019-04-25T07:11:39.101Z,27296.00
2019-04-25T07:12:39.082Z,57280.00
2019-04-25T07:13:39.004Z,45568.00
2019-04-25T07:14:38.874Z,37312.00
2019-04-25T07:15:38.773Z,34688.00
2019-04-25T07:16:38.701Z,26688.00
2019-04-25T07:17:38.781Z,29792.00
2019-04-25T07:18:38.533Z,37536.00
2019-04-25T07:19:38.448Z,31072.00
2019-04-25T07:20:38.424Z,34592.00
2019-04-25T07:21:38.311Z,27360.00
2019-04-25T07:22:38.251Z,23520.00
2019-04-25T07:23:39.037Z,22464.00
2019-04-25T07:24:38.051Z,21952.00
2019-04-25T07:25:37.974Z,21088.00
2019-04-25T07:26:39.754Z,20480.00
2019-04-25T07:27:37.812Z,20032.00
2019-04-25T07:28:37.732Z,20032.00
2019-04-25T07:29:37.691Z,20512.00
2019-04-25T07:30:48.421Z,21440.00
2019-04-25T07:31:37.519Z,22848.00
2019-04-25T07:32:37.505Z,24608.00
2019-04-25T07:33:37.338Z,26976.00
2019-04-25T07:34:37.262Z,31264.00
2019-04-25T07:35:37.296Z,28416.00
2019-04-25T07:36:37.333Z,26112.00
2019-04-25T07:37:39.065Z,25024.00
2019-04-25T07:38:37.021Z,24160.00
2019-04-25T07:39:36.861Z,23232.00
2019-04-25T07:40:36.784Z,22400.00
2019-04-25T07:41:38.145Z,21984.00
2019-04-25T07:42:36.619Z,22560.00
2019-04-25T07:43:38.578Z,24928.00
2019-04-25T07:44:49.312Z,25760.00
2019-04-25T07:45:36.408Z,27104.00
2019-04-25T07:46:39.362Z,29600.00
2019-04-25T07:47:36.534Z,29248.00
2019-04-25T07:48:37.149Z,28320.00
2019-04-25T07:49:36.065Z,27712.00
2019-04-25T07:50:36.717Z,28544.00
2019-04-25T07:51:36.717Z,26624.00
2019-04-25T07:52:35.883Z,25760.00
2019-04-25T07:53:36.125Z,23200.00
2019-04-25T07:54:36.521Z,21184.00
2019-04-25T07:55:36.328Z,20544.00
2019-04-25T07:56:36.502Z,20608.00
2019-04-25T07:57:35.906Z,28992.00
2019-04-25T07:58:48.073Z,60928.00
2019-04-25T07:59:36.309Z,66752.00
2019-04-25T08:00:36.212Z,53152.00
2019-04-25T08:01:37.328Z,46784.00
2019-04-25T08:02:35.082Z,62656.00
2019-04-25T08:03:35.287Z,67904.00
2019-04-25T08:04:36.772Z,70304.00
2019-04-25T08:05:35.667Z,63648.00
2019-04-25T08:06:35.713Z,58944.00
2019-04-25T08:07:35.295Z,55648.00
2019-04-25T08:08:34.973Z,49600.00
2019-04-25T08:09:35.724Z,54816.00
2019-04-25T08:10:34.681Z,51168.00
2019-04-25T08:11:35.087Z,46112.00
2019-04-25T08:12:35.468Z,56480.00
2019-04-25T08:13:35.087Z,49984.00
2019-04-25T08:14:35.061Z,60832.00
2019-04-25T08:15:34.983Z,77568.00
2019-04-25T08:16:34.754Z,80832.00
2019-04-25T08:17:35.870Z,73408.00
2019-04-25T08:18:35.106Z,62368.00
2019-04-25T08:19:34.679Z,80704.00
2019-04-25T08:20:34.688Z,71520.00
2019-04-25T08:21:34.394Z,46976.00
2019-04-25T08:22:35.596Z,40128.00
2019-04-25T08:23:36.694Z,38592.00
2019-04-25T08:24:34.895Z,41440.00
2019-04-25T08:25:36.241Z,44000.00
2019-04-25T08:26:34.980Z,36000.00
2019-04-25T08:27:34.338Z,32032.00
2019-04-25T08:28:34.456Z,32096.00
2019-04-25T08:29:34.736Z,30976.00
2019-04-25T08:30:35.188Z,29728.00
2019-04-25T08:31:34.772Z,29312.00
2019-04-25T08:32:35.083Z,30144.00
2019-04-25T08:33:34.581Z,33024.00
2019-04-25T08:34:34.403Z,31808.00
2019-04-25T08:35:34.180Z,31392.00
2019-04-25T08:36:33.813Z,32928.00
2019-04-25T08:37:34.125Z,36768.00
2019-04-25T08:38:34.653Z,35744.00
2019-04-25T08:39:34.403Z,33856.00
2019-04-25T08:40:33.135Z,30336.00
2019-04-25T08:41:34.164Z,25696.00
2019-04-25T08:42:32.818Z,23232.00
2019-04-25T08:43:32.559Z,21824.00
2019-04-25T08:44:33.066Z,21120.00
2019-04-25T08:45:31.688Z,20736.00
2019-04-25T08:46:33.888Z,20288.00
2019-04-25T08:47:32.642Z,19296.00
2019-04-25T08:48:31.973Z,17888.00
2019-04-25T08:49:31.562Z,17088.00
2019-04-25T08:50:33.958Z,16992.00
2019-04-25T08:51:32.022Z,16440.00
2019-04-25T08:52:31.864Z,16320.00
2019-04-25T08:53:31.446Z,18624.00
2019-04-25T08:54:31.219Z,23936.00
2019-04-25T08:55:31.506Z,30112.00
2019-04-25T08:56:31.874Z,32480.00
2019-04-25T08:57:31.910Z,32320.00
2019-04-25T08:58:31.293Z,32608.00
2019-04-25T08:59:36.000Z,37856.00
2019-04-25T09:00:31.682Z,47488.00
2019-04-25T09:01:32.258Z,46560.00
2019-04-25T09:02:30.382Z,55168.00
2019-04-25T09:03:30.428Z,55264.00
2019-04-25T09:04:30.177Z,44544.00
2019-04-25T09:05:30.264Z,43328.00
2019-04-25T09:06:30.135Z,43168.00
2019-04-25T09:07:29.945Z,47680.00
2019-04-25T09:08:30.051Z,61056.00
2019-04-25T09:09:29.782Z,79968.00
2019-04-25T09:10:29.705Z,68032.00
2019-04-25T09:11:32.307Z,85280.00
2019-04-25T09:12:29.562Z,90656.00
2019-04-25T09:13:38.308Z,79328.00
2019-04-25T09:14:29.392Z,71136.00
2019-04-25T09:15:29.484Z,84480.00
2019-04-25T09:16:29.249Z,96736.00
2019-04-25T09:17:29.349Z,100608.00
2019-04-25T09:18:29.087Z,100320.00
2019-04-25T09:19:29.309Z,110848.00
2019-04-25T09:20:28.933Z,100768.00
2019-04-25T09:21:28.858Z,106944.00
2019-04-25T09:22:28.806Z,107680.00
2019-04-25T09:23:28.924Z,110464.00
2019-04-25T09:24:28.640Z,111808.00
2019-04-25T09:25:28.569Z,104224.00
2019-04-25T09:26:28.500Z,112288.00
2019-04-25T09:27:28.588Z,111136.00
2019-04-25T09:28:28.358Z,93696.00
2019-04-25T09:29:28.278Z,97344.00
2019-04-25T09:30:28.362Z,83968.00
2019-04-25T09:31:28.140Z,92032.00
2019-04-25T09:32:28.084Z,74016.00
2019-04-25T09:33:28.075Z,79904.00
2019-04-25T09:34:27.933Z,70400.00
2019-04-25T09:35:27.882Z,52704.00
2019-04-25T09:36:27.785Z,55712.00
2019-04-25T09:37:27.930Z,53984.00
2019-04-25T09:38:27.642Z,57504.00
2019-04-25T09:39:27.910Z,46720.00
2019-04-25T09:40:27.539Z,43712.00
2019-04-25T09:41:27.512Z,41472.00
2019-04-25T09:42:27.369Z,43200.00
2019-04-25T09:43:27.286Z,53280.00
2019-04-25T09:44:27.330Z,89632.00
2019-04-25T09:45:27.134Z,54624.00
2019-04-25T09:46:27.061Z,52384.00
2019-04-25T09:47:27.183Z,39424.00
2019-04-25T09:48:26.921Z,32448.00
2019-04-25T09:49:26.842Z,31456.00
2019-04-25T09:50:26.962Z,33888.00
2019-04-25T09:51:26.692Z,40480.00
2019-04-25T09:52:26.632Z,46912.00
2019-04-25T09:53:26.573Z,45024.00
2019-04-25T09:54:26.497Z,41024.00
2019-04-25T09:55:26.393Z,39936.00
2019-04-25T09:56:33.971Z,43520.00
2019-04-25T09:57:26.260Z,45952.00
2019-04-25T09:58:26.183Z,48800.00
2019-04-25T09:59:28.083Z,45376.00
2019-04-25T10:00:26.196Z,45760.00
2019-04-25T10:01:25.943Z,41856.00
2019-04-25T10:02:26.035Z,43040.00
2019-04-25T10:03:25.782Z,43168.00
2019-04-25T10:04:25.828Z,43296.00
2019-04-25T10:05:25.629Z,45376.00
2019-04-25T10:06:25.637Z,44128.00
2019-04-25T10:07:25.489Z,40032.00
2019-04-25T10:08:25.430Z,34208.00
2019-04-25T10:09:25.328Z,33856.00
2019-04-25T10:10:25.442Z,36704.00
2019-04-25T10:11:25.170Z,41120.00
2019-04-25T10:12:25.106Z,41952.00
2019-04-25T10:13:25.195Z,39456.00
2019-04-25T10:14:25.061Z,41760.00
2019-04-25T10:15:24.862Z,35136.00
2019-04-25T10:16:24.783Z,35328.00
2019-04-25T10:17:24.716Z,47744.00
2019-04-25T10:18:24.698Z,54624.00
2019-04-25T10:19:24.553Z,36096.00
2019-04-25T10:20:25.531Z,32896.00
2019-04-25T10:21:24.398Z,30464.00
2019-04-25T10:22:24.553Z,28832.00
2019-04-25T10:23:24.244Z,27520.00
2019-04-25T10:24:24.330Z,25856.00
2019-04-25T10:25:24.093Z,24544.00
2019-04-25T10:26:24.121Z,24512.00
2019-04-25T10:27:24.252Z,25664.00
2019-04-25T10:28:23.948Z,27168.00
2019-04-25T10:29:23.777Z,27616.00
2019-04-25T10:30:25.929Z,28640.00
2019-04-25T10:31:23.817Z,32992.00
2019-04-25T10:32:23.813Z,33280.00
2019-04-25T10:33:24.271Z,29152.00
2019-04-25T10:34:24.177Z,26240.00
2019-04-25T10:35:23.879Z,27264.00
2019-04-25T10:36:24.589Z,28864.00
2019-04-25T10:37:23.168Z,29280.00
2019-04-25T10:38:24.180Z,30528.00
2019-04-25T10:39:23.048Z,28544.00
2019-04-25T10:40:23.442Z,27648.00
2019-04-25T10:41:24.371Z,29280.00
2019-04-25T10:42:23.906Z,30016.00
2019-04-25T10:43:23.937Z,32832.00
2019-04-25T10:44:24.382Z,36384.00
2019-04-25T10:45:25.461Z,42528.00
2019-04-25T10:46:24.370Z,45056.00
2019-04-25T10:47:22.397Z,42400.00
2019-04-25T10:48:24.066Z,41472.00
2019-04-25T10:49:23.546Z,41408.00
2019-04-25T10:50:24.306Z,40640.00
2019-04-25T10:51:23.859Z,37472.00
2019-04-25T10:52:23.331Z,34688.00
2019-04-25T10:53:23.249Z,33184.00
2019-04-25T10:54:21.840Z,32000.00
2019-04-25T10:55:23.331Z,32288.00
2019-04-25T10:56:29.673Z,31904.00
2019-04-25T10:57:21.609Z,33600.00
2019-04-25T10:58:21.525Z,37568.00
2019-04-25T10:59:21.457Z,38464.00
2019-04-25T11:00:21.372Z,38784.00
2019-04-25T11:01:21.311Z,38304.00
2019-04-25T11:02:21.273Z,37920.00
2019-04-25T11:03:24.185Z,39296.00
2019-04-25T11:04:21.059Z,41664.00
2019-04-25T11:05:21.028Z,42976.00
2019-04-25T11:06:20.904Z,43104.00
2019-04-25T11:07:20.845Z,41760.00
2019-04-25T11:08:20.755Z,41888.00
2019-04-25T11:09:20.670Z,42208.00
2019-04-25T11:10:20.596Z,39040.00
2019-04-25T11:11:20.524Z,36672.00
2019-04-25T11:12:20.452Z,38784.00
2019-04-25T11:13:20.363Z,39968.00
2019-04-25T11:14:20.338Z,43840.00
2019-04-25T11:15:20.380Z,41728.00
2019-04-25T11:16:20.132Z,39200.00
2019-04-25T11:17:20.188Z,37440.00
2019-04-25T11:18:19.976Z,37856.00
2019-04-25T11:19:19.909Z,41664.00
2019-04-25T11:20:19.968Z,43744.00
2019-04-25T11:21:19.750Z,41952.00
2019-04-25T11:22:19.693Z,49376.00
2019-04-25T11:23:19.783Z,50912.00
2019-04-25T11:24:19.516Z,45184.00
2019-04-25T11:25:19.593Z,40032.00
2019-04-25T11:26:19.368Z,36224.00
2019-04-25T11:27:19.372Z,34432.00
2019-04-25T11:28:19.211Z,34816.00
2019-04-25T11:29:19.200Z,38208.00
2019-04-25T11:30:19.059Z,43968.00
2019-04-25T11:31:19.067Z,50240.00
2019-04-25T11:32:19.974Z,50304.00
2019-04-25T11:33:18.870Z,58464.00
2019-04-25T11:34:18.753Z,67552.00
2019-04-25T11:35:19.739Z,125152.00
2019-04-25T11:36:18.596Z,105248.00
2019-04-25T11:37:18.537Z,72608.00
2019-04-25T11:38:18.704Z,113152.00
2019-04-25T11:39:18.370Z,168896.00
2019-04-25T11:40:18.302Z,168736.00
2019-04-25T11:41:19.236Z,88544.00
2019-04-25T11:42:18.167Z,118816.00
2019-04-25T11:43:18.080Z,91872.00
2019-04-25T11:44:18.008Z,120064.00
2019-04-25T11:45:17.933Z,74016.00
2019-04-25T11:46:17.864Z,84800.00
2019-04-25T11:47:17.818Z,92160.00
2019-04-25T11:48:17.716Z,101888.00
2019-04-25T11:49:17.651Z,147040.00
2019-04-25T11:50:17.581Z,134624.00
2019-04-25T11:51:17.505Z,136992.00
2019-04-25T11:52:26.864Z,139872.00
2019-04-25T11:53:20.053Z,139776.00
2019-04-25T11:54:17.289Z,138080.00
2019-04-25T11:55:17.234Z,141952.00
2019-04-25T11:56:17.186Z,138592.00
2019-04-25T11:57:17.113Z,135040.00
2019-04-25T11:58:17.021Z,138272.00
2019-04-25T11:59:16.950Z,119968.00
2019-04-25T12:00:22.173Z,107072.00
2019-04-25T12:01:16.817Z,117504.00
2019-04-25T12:02:16.757Z,117920.00
2019-04-25T12:03:16.675Z,118080.00
2019-04-25T12:04:16.613Z,128992.00
2019-04-25T12:05:16.544Z,133440.00
2019-04-25T12:06:16.467Z,131520.00
2019-04-25T12:07:16.432Z,133984.00
2019-04-25T12:08:16.334Z,130336.00
2019-04-25T12:09:16.267Z,131008.00
2019-04-25T12:10:16.199Z,127328.00
2019-04-25T12:11:16.172Z,124288.00
2019-04-25T12:12:16.067Z,123200.00
2019-04-25T12:13:16.013Z,123840.00